sensor_id;sensor_type;location;lat;lon;timestamp;temperature;humidity
72468;SHT30;60626;43.582;1.470;2023-02-03T00:02:04;10.23;53.34
72468;SHT30;60626;43.582;1.470;2023-02-03T00:04:31;10.21;53.17
72468;SHT30;60626;43.582;1.470;2023-02-03T00:06:57;10.16;53.18
72468;SHT30;60626;43.582;1.470;2023-02-03T00:09:24;10.12;53.30
72468;SHT30;60626;43.582;1.470;2023-02-03T00:11:51;10.09;53.39
72468;SHT30;60626;43.582;1.470;2023-02-03T00:14:19;10.05;53.31
72468;SHT30;60626;43.582;1.470;2023-02-03T00:16:45;10.02;53.46
72468;SHT30;60626;43.582;1.470;2023-02-03T00:19:12;9.98;53.46
72468;SHT30;60626;43.582;1.470;2023-02-03T00:21:39;9.94;53.57
72468;SHT30;60626;43.582;1.470;2023-02-03T00:24:06;9.93;53.61
72468;SHT30;60626;43.582;1.470;2023-02-03T00:26:33;9.95;53.55
72468;SHT30;60626;43.582;1.470;2023-02-03T00:28:59;9.88;53.64
72468;SHT30;60626;43.582;1.470;2023-02-03T00:31:26;9.88;53.59
72468;SHT30;60626;43.582;1.470;2023-02-03T00:33:56;9.85;53.55
72468;SHT30;60626;43.582;1.470;2023-02-03T00:36:24;9.83;53.60
72468;SHT30;60626;43.582;1.470;2023-02-03T00:38:51;9.80;53.62
72468;SHT30;60626;43.582;1.470;2023-02-03T00:41:18;9.78;53.59
72468;SHT30;60626;43.582;1.470;2023-02-03T00:43:46;9.75;53.54
72468;SHT30;60626;43.582;1.470;2023-02-03T00:46:13;9.73;53.48
72468;SHT30;60626;43.582;1.470;2023-02-03T00:48:40;9.70;53.55
72468;SHT30;60626;43.582;1.470;2023-02-03T00:51:06;9.64;53.60
72468;SHT30;60626;43.582;1.470;2023-02-03T00:53:33;9.58;53.63
72468;SHT30;60626;43.582;1.470;2023-02-03T00:56:00;9.56;53.64
72468;SHT30;60626;43.582;1.470;2023-02-03T00:58:26;9.53;53.79
72468;SHT30;60626;43.582;1.470;2023-02-03T01:00:56;9.51;53.91
72468;SHT30;60626;43.582;1.470;2023-02-03T01:03:23;9.49;53.97
72468;SHT30;60626;43.582;1.470;2023-02-03T01:05:50;9.47;54.02
72468;SHT30;60626;43.582;1.470;2023-02-03T01:08:16;9.53;54.03
72468;SHT30;60626;43.582;1.470;2023-02-03T01:10:43;9.50;53.98
72468;SHT30;60626;43.582;1.470;2023-02-03T01:13:09;9.56;53.63
72468;SHT30;60626;43.582;1.470;2023-02-03T01:15:36;9.51;53.64
72468;SHT30;60626;43.582;1.470;2023-02-03T01:18:03;9.50;53.65
72468;SHT30;60626;43.582;1.470;2023-02-03T01:20:29;9.46;53.66
72468;SHT30;60626;43.582;1.470;2023-02-03T01:22:56;9.39;53.73
72468;SHT30;60626;43.582;1.470;2023-02-03T01:25:22;9.38;53.73
72468;SHT30;60626;43.582;1.470;2023-02-03T01:27:49;9.33;53.84
72468;SHT30;60626;43.582;1.470;2023-02-03T01:30:16;9.33;53.79
72468;SHT30;60626;43.582;1.470;2023-02-03T01:32:42;9.29;53.64
72468;SHT30;60626;43.582;1.470;2023-02-03T01:35:09;9.28;53.80
72468;SHT30;60626;43.582;1.470;2023-02-03T01:37:36;9.20;53.93
72468;SHT30;60626;43.582;1.470;2023-02-03T01:40:02;9.19;53.93
72468;SHT30;60626;43.582;1.470;2023-02-03T01:42:32;9.16;54.06
72468;SHT30;60626;43.582;1.470;2023-02-03T01:44:59;9.14;54.16
72468;SHT30;60626;43.582;1.470;2023-02-03T01:47:27;9.12;54.16
72468;SHT30;60626;43.582;1.470;2023-02-03T01:52:30;9.05;54.25
72468;SHT30;60626;43.582;1.470;2023-02-03T01:54:59;9.05;54.22
72468;SHT30;60626;43.582;1.470;2023-02-03T01:57:34;9.04;54.20
72468;SHT30;60626;43.582;1.470;2023-02-03T02:00:03;9.01;54.26
72468;SHT30;60626;43.582;1.470;2023-02-03T02:02:31;9.01;54.20
72468;SHT30;60626;43.582;1.470;2023-02-03T02:05:10;9.01;54.27
72468;SHT30;60626;43.582;1.470;2023-02-03T02:07:40;9.02;54.27
72468;SHT30;60626;43.582;1.470;2023-02-03T02:10:07;8.98;54.33
72468;SHT30;60626;43.582;1.470;2023-02-03T02:12:34;8.98;54.30
72468;SHT30;60626;43.582;1.470;2023-02-03T02:15:02;8.97;54.29
72468;SHT30;60626;43.582;1.470;2023-02-03T02:31:42;8.91;54.23
72468;SHT30;60626;43.582;1.470;2023-02-03T02:34:43;8.92;54.10
72468;SHT30;60626;43.582;1.470;2023-02-03T02:40:40;8.84;54.07
72468;SHT30;60626;43.582;1.470;2023-02-03T02:43:18;8.78;54.31
72468;SHT30;60626;43.582;1.470;2023-02-03T02:45:51;8.73;54.36
72468;SHT30;60626;43.582;1.470;2023-02-03T02:48:27;8.71;54.40
72468;SHT30;60626;43.582;1.470;2023-02-03T02:50:57;8.67;54.43
72468;SHT30;60626;43.582;1.470;2023-02-03T02:53:28;8.65;54.50
72468;SHT30;60626;43.582;1.470;2023-02-03T02:55:59;8.64;54.60
72468;SHT30;60626;43.582;1.470;2023-02-03T02:58:28;8.60;54.64
72468;SHT30;60626;43.582;1.470;2023-02-03T03:00:55;8.59;54.77
72468;SHT30;60626;43.582;1.470;2023-02-03T03:03:22;8.61;54.64
72468;SHT30;60626;43.582;1.470;2023-02-03T03:06:06;8.60;54.71
72468;SHT30;60626;43.582;1.470;2023-02-03T03:08:44;8.59;54.70
72468;SHT30;60626;43.582;1.470;2023-02-03T03:11:12;8.60;54.74
72468;SHT30;60626;43.582;1.470;2023-02-03T03:13:50;8.57;54.82
72468;SHT30;60626;43.582;1.470;2023-02-03T03:16:22;8.54;54.74
72468;SHT30;60626;43.582;1.470;2023-02-03T03:18:53;8.54;54.70
72468;SHT30;60626;43.582;1.470;2023-02-03T03:21:25;8.56;54.57
72468;SHT30;60626;43.582;1.470;2023-02-03T03:23:56;8.56;54.49
72468;SHT30;60626;43.582;1.470;2023-02-03T03:29:16;8.50;54.55
72468;SHT30;60626;43.582;1.470;2023-02-03T03:31:43;8.49;54.53
72468;SHT30;60626;43.582;1.470;2023-02-03T03:34:11;8.46;54.63
72468;SHT30;60626;43.582;1.470;2023-02-03T03:36:46;8.42;54.77
72468;SHT30;60626;43.582;1.470;2023-02-03T03:39:24;8.35;54.96
72468;SHT30;60626;43.582;1.470;2023-02-03T03:42:03;8.36;54.96
72468;SHT30;60626;43.582;1.470;2023-02-03T03:44:36;8.36;55.07
72468;SHT30;60626;43.582;1.470;2023-02-03T03:47:40;8.33;54.82
72468;SHT30;60626;43.582;1.470;2023-02-03T03:50:07;8.33;54.88
72468;SHT30;60626;43.582;1.470;2023-02-03T03:52:36;8.29;54.95
72468;SHT30;60626;43.582;1.470;2023-02-03T03:55:07;8.29;55.14
72468;SHT30;60626;43.582;1.470;2023-02-03T03:57:39;8.25;54.93
72468;SHT30;60626;43.582;1.470;2023-02-03T04:00:08;8.22;55.23
72468;SHT30;60626;43.582;1.470;2023-02-03T04:02:38;8.21;55.20
72468;SHT30;60626;43.582;1.470;2023-02-03T04:05:06;8.21;55.20
72468;SHT30;60626;43.582;1.470;2023-02-03T04:07:44;8.19;55.12
72468;SHT30;60626;43.582;1.470;2023-02-03T04:12:50;8.13;55.17
72468;SHT30;60626;43.582;1.470;2023-02-03T04:15:17;8.15;55.14
72468;SHT30;60626;43.582;1.470;2023-02-03T04:17:43;8.13;55.20
72468;SHT30;60626;43.582;1.470;2023-02-03T04:20:11;8.18;55.16
72468;SHT30;60626;43.582;1.470;2023-02-03T04:22:37;8.13;54.99
72468;SHT30;60626;43.582;1.470;2023-02-03T04:25:04;8.13;55.11
72468;SHT30;60626;43.582;1.470;2023-02-03T04:27:31;8.08;55.09
72468;SHT30;60626;43.582;1.470;2023-02-03T04:29:58;8.06;55.18
72468;SHT30;60626;43.582;1.470;2023-02-03T04:32:25;8.05;55.23
72468;SHT30;60626;43.582;1.470;2023-02-03T04:34:51;8.06;55.10
72468;SHT30;60626;43.582;1.470;2023-02-03T04:37:18;8.03;55.15
72468;SHT30;60626;43.582;1.470;2023-02-03T04:39:46;8.05;55.19
72468;SHT30;60626;43.582;1.470;2023-02-03T04:42:13;7.98;55.24
72468;SHT30;60626;43.582;1.470;2023-02-03T04:44:39;7.97;55.31
72468;SHT30;60626;43.582;1.470;2023-02-03T04:47:06;7.94;55.25
72468;SHT30;60626;43.582;1.470;2023-02-03T04:49:32;7.91;55.32
72468;SHT30;60626;43.582;1.470;2023-02-03T04:51:59;7.88;55.42
72468;SHT30;60626;43.582;1.470;2023-02-03T04:54:25;7.91;55.41
72468;SHT30;60626;43.582;1.470;2023-02-03T04:56:52;7.89;55.43
72468;SHT30;60626;43.582;1.470;2023-02-03T04:59:19;7.91;55.54
72468;SHT30;60626;43.582;1.470;2023-02-03T05:01:45;7.97;55.51
72468;SHT30;60626;43.582;1.470;2023-02-03T05:04:12;7.99;55.21
72468;SHT30;60626;43.582;1.470;2023-02-03T05:06:39;7.99;55.08
72468;SHT30;60626;43.582;1.470;2023-02-03T05:09:05;7.94;55.07
72468;SHT30;60626;43.582;1.470;2023-02-03T05:11:32;7.92;55.16
72468;SHT30;60626;43.582;1.470;2023-02-03T05:13:59;7.94;55.29
72468;SHT30;60626;43.582;1.470;2023-02-03T05:16:25;7.94;55.24
72468;SHT30;60626;43.582;1.470;2023-02-03T05:18:52;7.92;55.14
72468;SHT30;60626;43.582;1.470;2023-02-03T05:21:19;7.89;55.18
72468;SHT30;60626;43.582;1.470;2023-02-03T05:23:45;7.88;55.28
72468;SHT30;60626;43.582;1.470;2023-02-03T05:26:12;7.88;55.26
72468;SHT30;60626;43.582;1.470;2023-02-03T05:28:39;7.87;55.41
72468;SHT30;60626;43.582;1.470;2023-02-03T05:31:05;7.87;55.41
72468;SHT30;60626;43.582;1.470;2023-02-03T05:33:32;7.88;55.48
72468;SHT30;60626;43.582;1.470;2023-02-03T05:35:59;7.92;55.25
72468;SHT30;60626;43.582;1.470;2023-02-03T05:38:25;7.88;55.20
72468;SHT30;60626;43.582;1.470;2023-02-03T05:40:52;7.85;55.22
72468;SHT30;60626;43.582;1.470;2023-02-03T05:43:37;7.82;55.31
72468;SHT30;60626;43.582;1.470;2023-02-03T05:46:05;7.82;55.28
72468;SHT30;60626;43.582;1.470;2023-02-03T05:48:32;7.82;55.35
72468;SHT30;60626;43.582;1.470;2023-02-03T05:50:59;7.82;55.27
72468;SHT30;60626;43.582;1.470;2023-02-03T05:53:26;7.78;55.26
72468;SHT30;60626;43.582;1.470;2023-02-03T05:55:52;7.71;55.38
72468;SHT30;60626;43.582;1.470;2023-02-03T05:58:19;7.69;55.48
72468;SHT30;60626;43.582;1.470;2023-02-03T06:00:45;7.67;55.69
72468;SHT30;60626;43.582;1.470;2023-02-03T06:03:12;7.64;55.72
72468;SHT30;60626;43.582;1.470;2023-02-03T06:05:39;7.67;55.82
72468;SHT30;60626;43.582;1.470;2023-02-03T06:08:07;7.70;55.80
72468;SHT30;60626;43.582;1.470;2023-02-03T06:10:34;7.73;55.78
72468;SHT30;60626;43.582;1.470;2023-02-03T06:13:12;7.73;55.55
72468;SHT30;60626;43.582;1.470;2023-02-03T06:15:39;7.70;55.52
72468;SHT30;60626;43.582;1.470;2023-02-03T06:18:07;7.71;55.55
72468;SHT30;60626;43.582;1.470;2023-02-03T06:20:34;7.70;55.69
72468;SHT30;60626;43.582;1.470;2023-02-03T06:23:01;7.70;55.66
72468;SHT30;60626;43.582;1.470;2023-02-03T06:25:27;7.70;55.60
72468;SHT30;60626;43.582;1.470;2023-02-03T06:27:54;7.64;55.55
72468;SHT30;60626;43.582;1.470;2023-02-03T06:30:20;7.61;55.62
72468;SHT30;60626;43.582;1.470;2023-02-03T06:32:49;7.61;55.75
72468;SHT30;60626;43.582;1.470;2023-02-03T06:35:16;7.64;55.75
72468;SHT30;60626;43.582;1.470;2023-02-03T06:37:43;7.66;55.72
72468;SHT30;60626;43.582;1.470;2023-02-03T06:40:11;7.64;55.60
72468;SHT30;60626;43.582;1.470;2023-02-03T06:42:38;7.61;55.71
72468;SHT30;60626;43.582;1.470;2023-02-03T06:45:05;7.64;55.63
72468;SHT30;60626;43.582;1.470;2023-02-03T06:47:31;7.61;55.55
72468;SHT30;60626;43.582;1.470;2023-02-03T06:49:58;7.60;55.42
72468;SHT30;60626;43.582;1.470;2023-02-03T06:52:24;7.60;55.50
72468;SHT30;60626;43.582;1.470;2023-02-03T06:54:51;7.57;55.50
72468;SHT30;60626;43.582;1.470;2023-02-03T06:57:17;7.56;55.65
72468;SHT30;60626;43.582;1.470;2023-02-03T06:59:44;7.53;55.63
72468;SHT30;60626;43.582;1.470;2023-02-03T07:02:10;7.54;55.61
72468;SHT30;60626;43.582;1.470;2023-02-03T07:04:37;7.53;55.47
72468;SHT30;60626;43.582;1.470;2023-02-03T07:07:04;7.51;55.51
72468;SHT30;60626;43.582;1.470;2023-02-03T07:09:31;7.49;55.53
72468;SHT30;60626;43.582;1.470;2023-02-03T07:11:57;7.46;55.54
72468;SHT30;60626;43.582;1.470;2023-02-03T07:14:24;7.43;55.63
72468;SHT30;60626;43.582;1.470;2023-02-03T07:16:51;7.42;55.67
72468;SHT30;60626;43.582;1.470;2023-02-03T07:19:19;7.43;55.73
72468;SHT30;60626;43.582;1.470;2023-02-03T07:21:45;7.46;55.80
72468;SHT30;60626;43.582;1.470;2023-02-03T07:24:12;7.43;55.69
72468;SHT30;60626;43.582;1.470;2023-02-03T07:26:38;7.42;55.61
72468;SHT30;60626;43.582;1.470;2023-02-03T07:29:05;7.39;55.67
72468;SHT30;60626;43.582;1.470;2023-02-03T07:31:32;7.37;55.74
72468;SHT30;60626;43.582;1.470;2023-02-03T07:33:59;7.36;55.78
72468;SHT30;60626;43.582;1.470;2023-02-03T07:36:26;7.36;55.80
72468;SHT30;60626;43.582;1.470;2023-02-03T07:38:54;7.34;55.90
72468;SHT30;60626;43.582;1.470;2023-02-03T07:41:20;7.32;55.86
72468;SHT30;60626;43.582;1.470;2023-02-03T07:43:47;7.36;55.93
72468;SHT30;60626;43.582;1.470;2023-02-03T07:46:14;7.42;55.97
72468;SHT30;60626;43.582;1.470;2023-02-03T07:48:41;7.49;56.01
72468;SHT30;60626;43.582;1.470;2023-02-03T07:51:07;7.50;55.97
72468;SHT30;60626;43.582;1.470;2023-02-03T07:53:34;7.54;55.77
72468;SHT30;60626;43.582;1.470;2023-02-03T07:56:04;7.60;55.63
72468;SHT30;60626;43.582;1.470;2023-02-03T07:58:31;7.64;55.82
72468;SHT30;60626;43.582;1.470;2023-02-03T08:00:58;7.64;55.75
72468;SHT30;60626;43.582;1.470;2023-02-03T08:03:24;7.71;55.77
72468;SHT30;60626;43.582;1.470;2023-02-03T08:05:51;7.78;55.80
72468;SHT30;60626;43.582;1.470;2023-02-03T08:08:18;7.80;55.79
72468;SHT30;60626;43.582;1.470;2023-02-03T08:10:45;7.82;55.77
72468;SHT30;60626;43.582;1.470;2023-02-03T08:13:12;7.87;55.80
72468;SHT30;60626;43.582;1.470;2023-02-03T08:15:38;7.89;55.66
72468;SHT30;60626;43.582;1.470;2023-02-03T08:18:05;7.95;55.78
72468;SHT30;60626;43.582;1.470;2023-02-03T08:20:34;8.02;55.71
72468;SHT30;60626;43.582;1.470;2023-02-03T08:23:01;8.06;55.62
72468;SHT30;60626;43.582;1.470;2023-02-03T08:25:27;8.16;55.57
72468;SHT30;60626;43.582;1.470;2023-02-03T08:27:54;8.22;55.40
72468;SHT30;60626;43.582;1.470;2023-02-03T08:30:21;8.28;55.56
72468;SHT30;60626;43.582;1.470;2023-02-03T08:32:48;8.35;55.51
72468;SHT30;60626;43.582;1.470;2023-02-03T08:35:21;8.42;55.40
72468;SHT30;60626;43.582;1.470;2023-02-03T08:38:05;8.54;55.27
72468;SHT30;60626;43.582;1.470;2023-02-03T08:40:31;8.68;55.14
72468;SHT30;60626;43.582;1.470;2023-02-03T08:42:58;8.88;54.54
72468;SHT30;60626;43.582;1.470;2023-02-03T08:45:25;9.08;54.31
72468;SHT30;60626;43.582;1.470;2023-02-03T08:47:51;9.29;54.07
72468;SHT30;60626;43.582;1.470;2023-02-03T08:50:18;9.54;53.51
72468;SHT30;60626;43.582;1.470;2023-02-03T08:52:45;9.84;53.14
72468;SHT30;60626;43.582;1.470;2023-02-03T08:55:11;10.08;52.51
72468;SHT30;60626;43.582;1.470;2023-02-03T08:57:38;10.38;51.57
72468;SHT30;60626;43.582;1.470;2023-02-03T09:00:08;10.60;51.17
72468;SHT30;60626;43.582;1.470;2023-02-03T09:02:35;10.85;50.87
72468;SHT30;60626;43.582;1.470;2023-02-03T09:05:02;11.01;50.36
72468;SHT30;60626;43.582;1.470;2023-02-03T09:07:29;11.22;50.47
72468;SHT30;60626;43.582;1.470;2023-02-03T09:09:55;11.43;49.84
72468;SHT30;60626;43.582;1.470;2023-02-03T09:12:23;11.65;49.53
72468;SHT30;60626;43.582;1.470;2023-02-03T09:14:50;11.84;48.90
72468;SHT30;60626;43.582;1.470;2023-02-03T09:17:16;12.01;48.27
72468;SHT30;60626;43.582;1.470;2023-02-03T09:19:43;12.17;48.48
72468;SHT30;60626;43.582;1.470;2023-02-03T09:22:10;12.34;47.76
72468;SHT30;60626;43.582;1.470;2023-02-03T09:24:36;12.50;47.77
72468;SHT30;60626;43.582;1.470;2023-02-03T09:27:03;12.59;47.76
72468;SHT30;60626;43.582;1.470;2023-02-03T09:29:30;12.75;46.93
72468;SHT30;60626;43.582;1.470;2023-02-03T09:31:56;12.91;47.09
72468;SHT30;60626;43.582;1.470;2023-02-03T09:34:23;13.10;47.12
72468;SHT30;60626;43.582;1.470;2023-02-03T09:36:49;13.27;47.73
72468;SHT30;60626;43.582;1.470;2023-02-03T09:39:16;13.41;46.84
72468;SHT30;60626;43.582;1.470;2023-02-03T09:42:16;13.52;45.83
72468;SHT30;60626;43.582;1.470;2023-02-03T09:44:49;13.69;45.96
72468;SHT30;60626;43.582;1.470;2023-02-03T09:47:24;13.87;45.76
72468;SHT30;60626;43.582;1.470;2023-02-03T09:50:01;14.00;45.28
72468;SHT30;60626;43.582;1.470;2023-02-03T09:52:32;14.11;44.89
72468;SHT30;60626;43.582;1.470;2023-02-03T09:57:42;14.01;45.05
72468;SHT30;60626;43.582;1.470;2023-02-03T10:00:29;13.96;44.89
72468;SHT30;60626;43.582;1.470;2023-02-03T10:10:52;14.48;44.65
72468;SHT30;60626;43.582;1.470;2023-02-03T10:13:50;14.68;45.61
72468;SHT30;60626;43.582;1.470;2023-02-03T10:19:10;14.72;43.79
72468;SHT30;60626;43.582;1.470;2023-02-03T10:21:41;14.90;44.54
72468;SHT30;60626;43.582;1.470;2023-02-03T10:24:17;14.99;43.70
72468;SHT30;60626;43.582;1.470;2023-02-03T10:26:45;15.11;45.15
72468;SHT30;60626;43.582;1.470;2023-02-03T10:29:37;15.00;43.85
72468;SHT30;60626;43.582;1.470;2023-02-03T10:32:09;14.83;43.10
72468;SHT30;60626;43.582;1.470;2023-02-03T10:34:37;14.86;43.74
72468;SHT30;60626;43.582;1.470;2023-02-03T10:39:48;15.13;44.47
72468;SHT30;60626;43.582;1.470;2023-02-03T10:42:15;15.00;44.08
72468;SHT30;60626;43.582;1.470;2023-02-03T10:44:48;15.08;43.75
72468;SHT30;60626;43.582;1.470;2023-02-03T10:47:26;15.27;44.03
72468;SHT30;60626;43.582;1.470;2023-02-03T10:49:54;15.42;43.12
72468;SHT30;60626;43.582;1.470;2023-02-03T10:52:30;15.62;42.86
72468;SHT30;60626;43.582;1.470;2023-02-03T10:54:57;15.66;43.76
72468;SHT30;60626;43.582;1.470;2023-02-03T10:57:28;15.52;43.03
72468;SHT30;60626;43.582;1.470;2023-02-03T11:00:29;15.49;43.64
72468;SHT30;60626;43.582;1.470;2023-02-03T11:03:05;15.31;43.58
72468;SHT30;60626;43.582;1.470;2023-02-03T11:05:33;15.23;43.47
72468;SHT30;60626;43.582;1.470;2023-02-03T11:07:59;15.23;43.91
72468;SHT30;60626;43.582;1.470;2023-02-03T11:15:52;15.08;43.42
72468;SHT30;60626;43.582;1.470;2023-02-03T11:18:50;15.16;43.72
72468;SHT30;60626;43.582;1.470;2023-02-03T11:24:41;15.04;43.91
72468;SHT30;60626;43.582;1.470;2023-02-03T11:26:45;15.00;43.93
72468;SHT30;60626;43.582;1.470;2023-02-03T11:29:21;15.08;43.55
72468;SHT30;60626;43.582;1.470;2023-02-03T11:31:51;15.24;43.83
72468;SHT30;60626;43.582;1.470;2023-02-03T11:34:24;15.41;44.01
72468;SHT30;60626;43.582;1.470;2023-02-03T11:36:52;15.40;43.40
72468;SHT30;60626;43.582;1.470;2023-02-03T11:39:28;15.26;43.55
72468;SHT30;60626;43.582;1.470;2023-02-03T11:42:01;15.28;43.69
72468;SHT30;60626;43.582;1.470;2023-02-03T11:44:29;15.34;43.93
72468;SHT30;60626;43.582;1.470;2023-02-03T11:47:07;15.38;43.69
72468;SHT30;60626;43.582;1.470;2023-02-03T11:58:15;15.41;43.62
72468;SHT30;60626;43.582;1.470;2023-02-03T12:06:52;15.35;43.87
72468;SHT30;60626;43.582;1.470;2023-02-03T12:09:23;15.34;43.89
72468;SHT30;60626;43.582;1.470;2023-02-03T12:31:07;14.96;44.96
72468;SHT30;60626;43.582;1.470;2023-02-03T12:33:40;14.85;44.96
72468;SHT30;60626;43.582;1.470;2023-02-03T12:41:43;14.54;45.16
72468;SHT30;60626;43.582;1.470;2023-02-03T12:44:34;14.45;45.12
72468;SHT30;60626;43.582;1.470;2023-02-03T12:47:17;14.28;45.48
72468;SHT30;60626;43.582;1.470;2023-02-03T12:49:52;14.16;45.83
72468;SHT30;60626;43.582;1.470;2023-02-03T12:52:29;14.16;46.13
72468;SHT30;60626;43.582;1.470;2023-02-03T12:57:50;14.18;46.05
72468;SHT30;60626;43.582;1.470;2023-02-03T13:00:36;14.24;46.05
72468;SHT30;60626;43.582;1.470;2023-02-03T13:03:18;14.30;46.11
72468;SHT30;60626;43.582;1.470;2023-02-03T13:08:35;14.20;46.09
72468;SHT30;60626;43.582;1.470;2023-02-03T13:11:14;14.14;46.16
72468;SHT30;60626;43.582;1.470;2023-02-03T13:13:51;14.09;46.24
72468;SHT30;60626;43.582;1.470;2023-02-03T13:16:23;14.06;46.55
72468;SHT30;60626;43.582;1.470;2023-02-03T13:18:57;14.06;46.76
72468;SHT30;60626;43.582;1.470;2023-02-03T13:21:27;14.10;46.66
72468;SHT30;60626;43.582;1.470;2023-02-03T13:23:54;14.13;46.69
72468;SHT30;60626;43.582;1.470;2023-02-03T13:26:52;14.10;47.08
72468;SHT30;60626;43.582;1.470;2023-02-03T13:29:57;14.11;47.07
72468;SHT30;60626;43.582;1.470;2023-02-03T13:35:42;14.14;47.39
72468;SHT30;60626;43.582;1.470;2023-02-03T13:41:09;14.17;47.57
72468;SHT30;60626;43.582;1.470;2023-02-03T13:43:46;14.20;47.51
72468;SHT30;60626;43.582;1.470;2023-02-03T13:46:23;14.22;47.87
72468;SHT30;60626;43.582;1.470;2023-02-03T13:48:53;14.20;47.96
72468;SHT30;60626;43.582;1.470;2023-02-03T13:51:23;14.25;47.77
72468;SHT30;60626;43.582;1.470;2023-02-03T13:53:57;14.25;47.51
72468;SHT30;60626;43.582;1.470;2023-02-03T13:56:25;14.25;47.79
72468;SHT30;60626;43.582;1.470;2023-02-03T13:58:59;14.25;47.64
72468;SHT30;60626;43.582;1.470;2023-02-03T14:01:30;14.25;47.84
72468;SHT30;60626;43.582;1.470;2023-02-03T14:03:59;14.30;47.80
72468;SHT30;60626;43.582;1.470;2023-02-03T14:12:20;14.45;47.69
72468;SHT30;60626;43.582;1.470;2023-02-03T14:20:03;14.49;47.59
72468;SHT30;60626;43.582;1.470;2023-02-03T14:22:50;14.52;47.44
72468;SHT30;60626;43.582;1.470;2023-02-03T14:25:19;14.55;47.43
72468;SHT30;60626;43.582;1.470;2023-02-03T14:27:47;14.56;47.52
72468;SHT30;60626;43.582;1.470;2023-02-03T14:30:24;14.61;47.51
72468;SHT30;60626;43.582;1.470;2023-02-03T14:32:58;14.55;47.39
72468;SHT30;60626;43.582;1.470;2023-02-03T14:35:33;14.54;47.45
72468;SHT30;60626;43.582;1.470;2023-02-03T14:38:04;14.56;47.65
72468;SHT30;60626;43.582;1.470;2023-02-03T14:40:48;14.56;47.54
72468;SHT30;60626;43.582;1.470;2023-02-03T14:46:31;14.66;47.66
72468;SHT30;60626;43.582;1.470;2023-02-03T14:49:22;14.64;47.57
72468;SHT30;60626;43.582;1.470;2023-02-03T14:52:03;14.65;47.43
72468;SHT30;60626;43.582;1.470;2023-02-03T14:57:28;14.72;47.50
72468;SHT30;60626;43.582;1.470;2023-02-03T15:00:05;14.71;47.21
72468;SHT30;60626;43.582;1.470;2023-02-03T15:02:33;14.72;47.29
72468;SHT30;60626;43.582;1.470;2023-02-03T15:07:42;14.73;47.21
72468;SHT30;60626;43.582;1.470;2023-02-03T15:13:25;14.77;47.29
72468;SHT30;60626;43.582;1.470;2023-02-03T15:15:56;14.77;47.01
72468;SHT30;60626;43.582;1.470;2023-02-03T15:18:32;14.77;47.07
72468;SHT30;60626;43.582;1.470;2023-02-03T15:21:02;14.77;47.08
72468;SHT30;60626;43.582;1.470;2023-02-03T15:23:37;14.76;47.02
72468;SHT30;60626;43.582;1.470;2023-02-03T15:26:33;14.80;47.07
72468;SHT30;60626;43.582;1.470;2023-02-03T15:29:19;14.79;46.99
72468;SHT30;60626;43.582;1.470;2023-02-03T15:31:51;14.79;47.06
72468;SHT30;60626;43.582;1.470;2023-02-03T15:34:33;14.79;46.97
72468;SHT30;60626;43.582;1.470;2023-02-03T15:42:57;14.77;46.92
72468;SHT30;60626;43.582;1.470;2023-02-03T15:45:34;14.76;46.51
72468;SHT30;60626;43.582;1.470;2023-02-03T15:48:13;14.71;46.29
72468;SHT30;60626;43.582;1.470;2023-02-03T15:50:46;14.69;46.37
72468;SHT30;60626;43.582;1.470;2023-02-03T15:53:29;14.69;46.95
72468;SHT30;60626;43.582;1.470;2023-02-03T15:56:25;14.71;47.14
72468;SHT30;60626;43.582;1.470;2023-02-03T15:58:56;14.64;47.37
72468;SHT30;60626;43.582;1.470;2023-02-03T16:01:24;14.61;47.48
72468;SHT30;60626;43.582;1.470;2023-02-03T16:03:53;14.56;47.64
72468;SHT30;60626;43.582;1.470;2023-02-03T16:08:50;14.52;47.76
72468;SHT30;60626;43.582;1.470;2023-02-03T16:11:34;14.49;47.74
72468;SHT30;60626;43.582;1.470;2023-02-03T16:14:09;14.45;47.79
72468;SHT30;60626;43.582;1.470;2023-02-03T16:16:48;14.46;47.91
72468;SHT30;60626;43.582;1.470;2023-02-03T16:19:31;14.44;47.93
72468;SHT30;60626;43.582;1.470;2023-02-03T16:22:38;14.37;47.84
72468;SHT30;60626;43.582;1.470;2023-02-03T16:25:26;14.34;47.92
72468;SHT30;60626;43.582;1.470;2023-02-03T16:28:12;14.28;47.87
72468;SHT30;60626;43.582;1.470;2023-02-03T16:31:15;14.24;47.98
72468;SHT30;60626;43.582;1.470;2023-02-03T16:34:13;14.18;47.90
72468;SHT30;60626;43.582;1.470;2023-02-03T16:37:00;14.18;48.01
72468;SHT30;60626;43.582;1.470;2023-02-03T16:39:45;14.10;48.13
72468;SHT30;60626;43.582;1.470;2023-02-03T16:42:37;14.07;48.12
72468;SHT30;60626;43.582;1.470;2023-02-03T16:45:23;14.01;48.09
72468;SHT30;60626;43.582;1.470;2023-02-03T16:48:10;13.99;48.04
72468;SHT30;60626;43.582;1.470;2023-02-03T16:50:59;13.93;48.03
72468;SHT30;60626;43.582;1.470;2023-02-03T16:53:31;13.89;48.08
72468;SHT30;60626;43.582;1.470;2023-02-03T16:56:00;13.82;48.17
72468;SHT30;60626;43.582;1.470;2023-02-03T16:58:27;13.74;48.31
72468;SHT30;60626;43.582;1.470;2023-02-03T17:00:56;13.73;48.31
72468;SHT30;60626;43.582;1.470;2023-02-03T17:03:25;13.69;48.36
72468;SHT30;60626;43.582;1.470;2023-02-03T17:05:53;13.66;48.37
72468;SHT30;60626;43.582;1.470;2023-02-03T17:08:23;13.62;48.33
72468;SHT30;60626;43.582;1.470;2023-02-03T17:10:50;13.59;48.40
72468;SHT30;60626;43.582;1.470;2023-02-03T17:13:18;13.56;48.41
72468;SHT30;60626;43.582;1.470;2023-02-03T17:15:48;13.52;48.58
72468;SHT30;60626;43.582;1.470;2023-02-03T17:18:15;13.46;48.74
72468;SHT30;60626;43.582;1.470;2023-02-03T17:20:43;13.45;48.69
72468;SHT30;60626;43.582;1.470;2023-02-03T17:23:11;13.42;48.70
72468;SHT30;60626;43.582;1.470;2023-02-03T17:25:38;13.41;48.82
72468;SHT30;60626;43.582;1.470;2023-02-03T17:28:07;13.38;48.94
72468;SHT30;60626;43.582;1.470;2023-02-03T17:30:34;13.37;48.86
72468;SHT30;60626;43.582;1.470;2023-02-03T17:33:03;13.32;48.95
72468;SHT30;60626;43.582;1.470;2023-02-03T17:35:41;13.31;49.05
72468;SHT30;60626;43.582;1.470;2023-02-03T17:38:10;13.28;49.15
72468;SHT30;60626;43.582;1.470;2023-02-03T17:40:41;13.27;49.27
72468;SHT30;60626;43.582;1.470;2023-02-03T17:43:27;13.22;49.27
72468;SHT30;60626;43.582;1.470;2023-02-03T17:46:14;13.19;49.25
72468;SHT30;60626;43.582;1.470;2023-02-03T17:48:58;13.18;49.32
72468;SHT30;60626;43.582;1.470;2023-02-03T17:51:42;13.10;49.34
72468;SHT30;60626;43.582;1.470;2023-02-03T17:54:26;13.06;49.55
72468;SHT30;60626;43.582;1.470;2023-02-03T17:56:53;13.03;49.76
72468;SHT30;60626;43.582;1.470;2023-02-03T17:59:20;12.97;49.73
72468;SHT30;60626;43.582;1.470;2023-02-03T18:01:46;12.94;49.99
72468;SHT30;60626;43.582;1.470;2023-02-03T18:04:13;12.93;50.03
72468;SHT30;60626;43.582;1.470;2023-02-03T18:06:40;12.91;49.99
72468;SHT30;60626;43.582;1.470;2023-02-03T18:09:08;12.89;50.08
72468;SHT30;60626;43.582;1.470;2023-02-03T18:11:36;12.87;50.28
72468;SHT30;60626;43.582;1.470;2023-02-03T18:14:03;12.83;50.47
72468;SHT30;60626;43.582;1.470;2023-02-03T18:16:32;12.80;50.49